sensor_id;sensor_type;location;lat;lon;timestamp;P1;durP1;ratioP1;P2;durP2;ratioP2
13712;SDS011;6928;50.546;7.120;2022-08-01T00:02:18;0.75;;;0.75;;
13712;SDS011;6928;50.546;7.120;2022-08-01T00:04:46;0.70;;;0.60;;
13712;SDS011;6928;50.546;7.120;2022-08-01T00:07:13;0.60;;;0.50;;
13712;SDS011;6928;50.546;7.120;2022-08-01T00:09:40;0.45;;;0.45;;
13712;SDS011;6928;50.546;7.120;2022-08-01T00:12:07;1.20;;;0.68;;
13712;SDS011;6928;50.546;7.120;2022-08-01T00:14:34;1.70;;;0.60;;
13712;SDS011;6928;50.546;7.120;2022-08-01T00:17:01;0.82;;;0.82;;
13712;SDS011;6928;50.546;7.120;2022-08-01T00:19:29;0.60;;;0.60;;
13712;SDS011;6928;50.546;7.120;2022-08-01T00:21:57;0.60;;;0.50;;
13712;SDS011;6928;50.546;7.120;2022-08-01T00:24:24;1.10;;;0.60;;
13712;SDS011;6928;50.546;7.120;2022-08-01T00:26:51;0.63;;;0.50;;
13712;SDS011;6928;50.546;7.120;2022-08-01T00:29:18;0.77;;;0.50;;
13712;SDS011;6928;50.546;7.120;2022-08-01T00:31:44;0.75;;;0.50;;
13712;SDS011;6928;50.546;7.120;2022-08-01T00:34:11;0.50;;;0.50;;
13712;SDS011;6928;50.546;7.120;2022-08-01T00:36:38;0.40;;;0.40;;
13712;SDS011;6928;50.546;7.120;2022-08-01T00:39:06;2.08;;;0.50;;
13712;SDS011;6928;50.546;7.120;2022-08-01T00:41:33;0.75;;;0.40;;
13712;SDS011;6928;50.546;7.120;2022-08-01T00:44:01;0.50;;;0.50;;
13712;SDS011;6928;50.546;7.120;2022-08-01T00:46:30;2.05;;;0.60;;
13712;SDS011;6928;50.546;7.120;2022-08-01T00:48:57;0.40;;;0.40;;
13712;SDS011;6928;50.546;7.120;2022-08-01T00:51:24;0.45;;;0.45;;
13712;SDS011;6928;50.546;7.120;2022-08-01T00:53:52;2.25;;;0.50;;
13712;SDS011;6928;50.546;7.120;2022-08-01T00:56:21;0.73;;;0.57;;
13712;SDS011;6928;50.546;7.120;2022-08-01T00:58:51;0.50;;;0.50;;
13712;SDS011;6928;50.546;7.120;2022-08-01T01:01:18;1.65;;;0.70;;
13712;SDS011;6928;50.546;7.120;2022-08-01T01:03:46;1.25;;;0.60;;
13712;SDS011;6928;50.546;7.120;2022-08-01T01:06:21;0.50;;;0.50;;
13712;SDS011;6928;50.546;7.120;2022-08-01T01:08:59;0.50;;;0.50;;
13712;SDS011;6928;50.546;7.120;2022-08-01T01:11:44;0.52;;;0.52;;
13712;SDS011;6928;50.546;7.120;2022-08-01T01:14:26;2.58;;;0.57;;
13712;SDS011;6928;50.546;7.120;2022-08-01T01:16:59;0.63;;;0.60;;
13712;SDS011;6928;50.546;7.120;2022-08-01T01:19:30;0.70;;;0.70;;
13712;SDS011;6928;50.546;7.120;2022-08-01T01:22:05;2.28;;;0.50;;
13712;SDS011;6928;50.546;7.120;2022-08-01T01:24:56;0.50;;;0.50;;
13712;SDS011;6928;50.546;7.120;2022-08-01T01:27:45;0.50;;;0.50;;
13712;SDS011;6928;50.546;7.120;2022-08-01T01:30:19;0.50;;;0.50;;
13712;SDS011;6928;50.546;7.120;2022-08-01T01:32:50;1.38;;;0.70;;
13712;SDS011;6928;50.546;7.120;2022-08-01T01:35:19;0.65;;;0.65;;
13712;SDS011;6928;50.546;7.120;2022-08-01T01:37:52;0.57;;;0.50;;
13712;SDS011;6928;50.546;7.120;2022-08-01T01:40:26;1.98;;;0.57;;
13712;SDS011;6928;50.546;7.120;2022-08-01T01:42:54;1.25;;;0.70;;
13712;SDS011;6928;50.546;7.120;2022-08-01T01:45:24;1.17;;;0.80;;
13712;SDS011;6928;50.546;7.120;2022-08-01T01:47:52;1.65;;;0.80;;
13712;SDS011;6928;50.546;7.120;2022-08-01T01:50:21;0.70;;;0.70;;
13712;SDS011;6928;50.546;7.120;2022-08-01T01:52:49;0.60;;;0.60;;
13712;SDS011;6928;50.546;7.120;2022-08-01T01:55:17;0.40;;;0.40;;
13712;SDS011;6928;50.546;7.120;2022-08-01T01:57:46;2.03;;;0.80;;
13712;SDS011;6928;50.546;7.120;2022-08-01T02:00:14;0.60;;;0.60;;
13712;SDS011;6928;50.546;7.120;2022-08-01T02:02:44;0.68;;;0.68;;
13712;SDS011;6928;50.546;7.120;2022-08-01T02:05:12;0.70;;;0.70;;
13712;SDS011;6928;50.546;7.120;2022-08-01T02:07:40;1.77;;;0.85;;
13712;SDS011;6928;50.546;7.120;2022-08-01T02:10:09;0.50;;;0.50;;
13712;SDS011;6928;50.546;7.120;2022-08-01T02:12:39;1.10;;;0.77;;
13712;SDS011;6928;50.546;7.120;2022-08-01T02:15:10;1.77;;;0.75;;
13712;SDS011;6928;50.546;7.120;2022-08-01T02:17:40;0.80;;;0.80;;
13712;SDS011;6928;50.546;7.120;2022-08-01T02:20:11;1.55;;;0.80;;
13712;SDS011;6928;50.546;7.120;2022-08-01T02:22:40;1.33;;;0.77;;
13712;SDS011;6928;50.546;7.120;2022-08-01T02:25:15;1.42;;;0.90;;
13712;SDS011;6928;50.546;7.120;2022-08-01T02:27:50;0.77;;;0.77;;
13712;SDS011;6928;50.546;7.120;2022-08-01T02:30:25;1.70;;;0.90;;
13712;SDS011;6928;50.546;7.120;2022-08-01T02:33:02;1.80;;;0.88;;
13712;SDS011;6928;50.546;7.120;2022-08-01T02:35:35;0.90;;;0.90;;
13712;SDS011;6928;50.546;7.120;2022-08-01T02:38:05;2.70;;;1.10;;
13712;SDS011;6928;50.546;7.120;2022-08-01T02:40:37;1.02;;;0.70;;
13712;SDS011;6928;50.546;7.120;2022-08-01T02:43:07;0.82;;;0.82;;
13712;SDS011;6928;50.546;7.120;2022-08-01T02:45:41;0.60;;;0.60;;
13712;SDS011;6928;50.546;7.120;2022-08-01T02:48:15;0.82;;;0.73;;
13712;SDS011;6928;50.546;7.120;2022-08-01T02:50:47;0.82;;;0.82;;
13712;SDS011;6928;50.546;7.120;2022-08-01T02:53:16;0.55;;;0.55;;
13712;SDS011;6928;50.546;7.120;2022-08-01T02:55:46;0.70;;;0.70;;
13712;SDS011;6928;50.546;7.120;2022-08-01T02:58:15;1.23;;;0.70;;
13712;SDS011;6928;50.546;7.120;2022-08-01T03:00:44;0.63;;;0.63;;
13712;SDS011;6928;50.546;7.120;2022-08-01T03:03:13;1.45;;;0.60;;
13712;SDS011;6928;50.546;7.120;2022-08-01T03:05:43;2.15;;;0.63;;
13712;SDS011;6928;50.546;7.120;2022-08-01T03:08:11;1.25;;;0.80;;
13712;SDS011;6928;50.546;7.120;2022-08-01T03:10:40;1.08;;;0.95;;
13712;SDS011;6928;50.546;7.120;2022-08-01T03:13:12;1.38;;;0.70;;
13712;SDS011;6928;50.546;7.120;2022-08-01T03:15:41;1.98;;;0.90;;
13712;SDS011;6928;50.546;7.120;2022-08-01T03:18:10;1.58;;;1.10;;
13712;SDS011;6928;50.546;7.120;2022-08-01T03:20:40;1.23;;;1.17;;
13712;SDS011;6928;50.546;7.120;2022-08-01T03:23:10;3.50;;;1.15;;
13712;SDS011;6928;50.546;7.120;2022-08-01T03:25:38;1.40;;;1.40;;
13712;SDS011;6928;50.546;7.120;2022-08-01T03:28:08;1.00;;;1.00;;
13712;SDS011;6928;50.546;7.120;2022-08-01T03:30:38;1.15;;;1.15;;
13712;SDS011;6928;50.546;7.120;2022-08-01T03:33:06;1.48;;;1.10;;
13712;SDS011;6928;50.546;7.120;2022-08-01T03:35:34;2.83;;;1.17;;
13712;SDS011;6928;50.546;7.120;2022-08-01T03:38:07;3.55;;;1.10;;
13712;SDS011;6928;50.546;7.120;2022-08-01T03:40:37;1.65;;;1.33;;
13712;SDS011;6928;50.546;7.120;2022-08-01T03:43:07;1.80;;;1.40;;
13712;SDS011;6928;50.546;7.120;2022-08-01T03:45:42;1.38;;;1.38;;
13712;SDS011;6928;50.546;7.120;2022-08-01T03:48:15;2.50;;;1.40;;
13712;SDS011;6928;50.546;7.120;2022-08-01T03:50:46;2.75;;;1.60;;
13712;SDS011;6928;50.546;7.120;2022-08-01T03:53:17;1.50;;;1.30;;
13712;SDS011;6928;50.546;7.120;2022-08-01T03:55:48;2.00;;;1.48;;
13712;SDS011;6928;50.546;7.120;2022-08-01T03:58:16;1.40;;;1.30;;
13712;SDS011;6928;50.546;7.120;2022-08-01T04:00:43;2.35;;;1.50;;
13712;SDS011;6928;50.546;7.120;2022-08-01T04:03:13;1.55;;;1.45;;
13712;SDS011;6928;50.546;7.120;2022-08-01T04:05:41;7.15;;;1.70;;
13712;SDS011;6928;50.546;7.120;2022-08-01T04:08:08;1.63;;;1.52;;
13712;SDS011;6928;50.546;7.120;2022-08-01T04:10:37;1.52;;;1.42;;
13712;SDS011;6928;50.546;7.120;2022-08-01T04:13:04;1.90;;;1.80;;
13712;SDS011;6928;50.546;7.120;2022-08-01T04:15:31;1.50;;;1.40;;
13712;SDS011;6928;50.546;7.120;2022-08-01T04:17:58;1.92;;;1.70;;
13712;SDS011;6928;50.546;7.120;2022-08-01T04:20:25;2.03;;;1.70;;
13712;SDS011;6928;50.546;7.120;2022-08-01T04:22:52;2.08;;;1.77;;
13712;SDS011;6928;50.546;7.120;2022-08-01T04:25:19;3.08;;;2.17;;
13712;SDS011;6928;50.546;7.120;2022-08-01T04:27:53;2.15;;;1.70;;
13712;SDS011;6928;50.546;7.120;2022-08-01T04:30:22;2.83;;;1.65;;
13712;SDS011;6928;50.546;7.120;2022-08-01T04:32:54;1.95;;;1.50;;
13712;SDS011;6928;50.546;7.120;2022-08-01T04:35:23;2.22;;;1.80;;
13712;SDS011;6928;50.546;7.120;2022-08-01T04:37:52;2.20;;;1.80;;
13712;SDS011;6928;50.546;7.120;2022-08-01T04:40:20;3.08;;;2.00;;
13712;SDS011;6928;50.546;7.120;2022-08-01T04:42:48;2.35;;;1.58;;
13712;SDS011;6928;50.546;7.120;2022-08-01T04:45:17;2.85;;;1.95;;
13712;SDS011;6928;50.546;7.120;2022-08-01T04:47:44;2.15;;;1.95;;
13712;SDS011;6928;50.546;7.120;2022-08-01T04:50:12;2.33;;;1.88;;
13712;SDS011;6928;50.546;7.120;2022-08-01T04:52:39;4.97;;;1.85;;
13712;SDS011;6928;50.546;7.120;2022-08-01T04:55:08;1.75;;;1.38;;
13712;SDS011;6928;50.546;7.120;2022-08-01T04:57:36;2.67;;;1.35;;
13712;SDS011;6928;50.546;7.120;2022-08-01T05:00:07;1.98;;;1.88;;
13712;SDS011;6928;50.546;7.120;2022-08-01T05:02:36;1.70;;;1.60;;
13712;SDS011;6928;50.546;7.120;2022-08-01T05:05:04;2.97;;;1.70;;
13712;SDS011;6928;50.546;7.120;2022-08-01T05:07:32;1.90;;;1.80;;
13712;SDS011;6928;50.546;7.120;2022-08-01T05:10:01;2.80;;;2.20;;
13712;SDS011;6928;50.546;7.120;2022-08-01T05:12:29;2.08;;;1.70;;
13712;SDS011;6928;50.546;7.120;2022-08-01T05:14:57;1.75;;;1.65;;
13712;SDS011;6928;50.546;7.120;2022-08-01T05:17:24;1.95;;;1.85;;
13712;SDS011;6928;50.546;7.120;2022-08-01T05:19:52;1.70;;;1.60;;
13712;SDS011;6928;50.546;7.120;2022-08-01T05:22:19;4.93;;;1.95;;
13712;SDS011;6928;50.546;7.120;2022-08-01T05:24:45;1.90;;;1.80;;
13712;SDS011;6928;50.546;7.120;2022-08-01T05:27:12;2.42;;;1.95;;
13712;SDS011;6928;50.546;7.120;2022-08-01T05:29:39;2.95;;;2.05;;
13712;SDS011;6928;50.546;7.120;2022-08-01T05:32:07;1.90;;;1.80;;
13712;SDS011;6928;50.546;7.120;2022-08-01T05:34:34;2.08;;;1.90;;
13712;SDS011;6928;50.546;7.120;2022-08-01T05:37:02;3.15;;;2.10;;
13712;SDS011;6928;50.546;7.120;2022-08-01T05:39:29;1.98;;;1.88;;
13712;SDS011;6928;50.546;7.120;2022-08-01T05:41:56;4.55;;;2.10;;
13712;SDS011;6928;50.546;7.120;2022-08-01T05:44:23;3.33;;;2.00;;
13712;SDS011;6928;50.546;7.120;2022-08-01T05:46:50;2.03;;;1.90;;
13712;SDS011;6928;50.546;7.120;2022-08-01T05:49:17;4.22;;;2.17;;
13712;SDS011;6928;50.546;7.120;2022-08-01T05:51:44;4.32;;;2.10;;
13712;SDS011;6928;50.546;7.120;2022-08-01T05:54:12;4.43;;;2.10;;
13712;SDS011;6928;50.546;7.120;2022-08-01T05:56:39;3.28;;;2.15;;
13712;SDS011;6928;50.546;7.120;2022-08-01T05:59:05;2.50;;;2.10;;
13712;SDS011;6928;50.546;7.120;2022-08-01T06:01:32;3.15;;;2.85;;
13712;SDS011;6928;50.546;7.120;2022-08-01T06:03:59;2.60;;;2.40;;
13712;SDS011;6928;50.546;7.120;2022-08-01T06:06:26;3.63;;;2.80;;
13712;SDS011;6928;50.546;7.120;2022-08-01T06:08:52;3.10;;;2.90;;
13712;SDS011;6928;50.546;7.120;2022-08-01T06:11:20;2.63;;;2.40;;
13712;SDS011;6928;50.546;7.120;2022-08-01T06:13:47;3.72;;;2.70;;
13712;SDS011;6928;50.546;7.120;2022-08-01T06:16:14;3.88;;;2.83;;
13712;SDS011;6928;50.546;7.120;2022-08-01T06:18:41;4.53;;;2.80;;
13712;SDS011;6928;50.546;7.120;2022-08-01T06:21:08;4.97;;;2.70;;
13712;SDS011;6928;50.546;7.120;2022-08-01T06:23:35;6.63;;;3.00;;
13712;SDS011;6928;50.546;7.120;2022-08-01T06:26:02;3.33;;;3.03;;
13712;SDS011;6928;50.546;7.120;2022-08-01T06:28:30;3.63;;;2.70;;
13712;SDS011;6928;50.546;7.120;2022-08-01T06:30:57;5.05;;;3.25;;
13712;SDS011;6928;50.546;7.120;2022-08-01T06:33:24;3.08;;;2.78;;
13712;SDS011;6928;50.546;7.120;2022-08-01T06:35:51;3.45;;;2.67;;
13712;SDS011;6928;50.546;7.120;2022-08-01T06:38:18;5.35;;;2.85;;
13712;SDS011;6928;50.546;7.120;2022-08-01T06:40:45;4.72;;;3.75;;
13712;SDS011;6928;50.546;7.120;2022-08-01T06:43:11;7.68;;;3.75;;
13712;SDS011;6928;50.546;7.120;2022-08-01T06:45:40;3.85;;;3.17;;
13712;SDS011;6928;50.546;7.120;2022-08-01T06:48:07;3.58;;;3.00;;
13712;SDS011;6928;50.546;7.120;2022-08-01T06:50:34;4.10;;;3.35;;
13712;SDS011;6928;50.546;7.120;2022-08-01T06:53:01;5.05;;;3.13;;
13712;SDS011;6928;50.546;7.120;2022-08-01T06:55:28;4.18;;;3.38;;
13712;SDS011;6928;50.546;7.120;2022-08-01T06:57:55;4.32;;;3.92;;
13712;SDS011;6928;50.546;7.120;2022-08-01T07:00:22;4.13;;;3.55;;
13712;SDS011;6928;50.546;7.120;2022-08-01T07:02:53;4.97;;;4.10;;
13712;SDS011;6928;50.546;7.120;2022-08-01T07:05:22;4.72;;;3.80;;
13712;SDS011;6928;50.546;7.120;2022-08-01T07:07:49;5.18;;;3.67;;
13712;SDS011;6928;50.546;7.120;2022-08-01T07:10:16;7.40;;;3.90;;
13712;SDS011;6928;50.546;7.120;2022-08-01T07:12:43;5.10;;;4.10;;
13712;SDS011;6928;50.546;7.120;2022-08-01T07:15:10;4.38;;;3.65;;
13712;SDS011;6928;50.546;7.120;2022-08-01T07:17:38;3.58;;;3.22;;
13712;SDS011;6928;50.546;7.120;2022-08-01T07:20:07;5.65;;;3.50;;
13712;SDS011;6928;50.546;7.120;2022-08-01T07:22:36;5.30;;;3.28;;
13712;SDS011;6928;50.546;7.120;2022-08-01T07:25:04;5.97;;;3.28;;
13712;SDS011;6928;50.546;7.120;2022-08-01T07:27:32;4.63;;;3.50;;
13712;SDS011;6928;50.546;7.120;2022-08-01T07:29:59;6.53;;;3.50;;
13712;SDS011;6928;50.546;7.120;2022-08-01T07:32:25;4.63;;;3.58;;
13712;SDS011;6928;50.546;7.120;2022-08-01T07:34:54;6.68;;;3.67;;
13712;SDS011;6928;50.546;7.120;2022-08-01T07:37:22;4.20;;;3.40;;
13712;SDS011;6928;50.546;7.120;2022-08-01T07:39:49;3.70;;;3.40;;
13712;SDS011;6928;50.546;7.120;2022-08-01T07:42:16;7.53;;;3.38;;
13712;SDS011;6928;50.546;7.120;2022-08-01T07:44:43;5.88;;;3.38;;
13712;SDS011;6928;50.546;7.120;2022-08-01T07:47:09;4.18;;;3.70;;
13712;SDS011;6928;50.546;7.120;2022-08-01T07:49:36;7.47;;;3.75;;
13712;SDS011;6928;50.546;7.120;2022-08-01T07:52:04;4.03;;;2.92;;
13712;SDS011;6928;50.546;7.120;2022-08-01T07:54:32;3.63;;;3.10;;
13712;SDS011;6928;50.546;7.120;2022-08-01T07:56:59;6.82;;;3.55;;
13712;SDS011;6928;50.546;7.120;2022-08-01T07:59:26;3.55;;;3.25;;
13712;SDS011;6928;50.546;7.120;2022-08-01T08:01:53;5.13;;;3.80;;
13712;SDS011;6928;50.546;7.120;2022-08-01T08:04:20;4.35;;;3.22;;
13712;SDS011;6928;50.546;7.120;2022-08-01T08:06:47;5.20;;;3.67;;
13712;SDS011;6928;50.546;7.120;2022-08-01T08:09:14;5.35;;;3.45;;
13712;SDS011;6928;50.546;7.120;2022-08-01T08:11:42;3.35;;;3.05;;
13712;SDS011;6928;50.546;7.120;2022-08-01T08:14:09;4.68;;;3.42;;
13712;SDS011;6928;50.546;7.120;2022-08-01T08:16:36;3.80;;;3.38;;
13712;SDS011;6928;50.546;7.120;2022-08-01T08:19:03;6.32;;;3.95;;
13712;SDS011;6928;50.546;7.120;2022-08-01T08:21:30;4.53;;;3.42;;
13712;SDS011;6928;50.546;7.120;2022-08-01T08:23:57;3.78;;;3.45;;
13712;SDS011;6928;50.546;7.120;2022-08-01T08:26:43;4.35;;;3.67;;
13712;SDS011;6928;50.546;7.120;2022-08-01T08:29:09;6.07;;;3.47;;
13712;SDS011;6928;50.546;7.120;2022-08-01T08:31:36;5.38;;;3.38;;
13712;SDS011;6928;50.546;7.120;2022-08-01T08:34:03;3.42;;;3.13;;
13712;SDS011;6928;50.546;7.120;2022-08-01T08:36:30;5.25;;;3.55;;
13712;SDS011;6928;50.546;7.120;2022-08-01T08:38:57;8.43;;;4.15;;
13712;SDS011;6928;50.546;7.120;2022-08-01T08:41:25;3.53;;;3.17;;
13712;SDS011;6928;50.546;7.120;2022-08-01T08:43:53;5.40;;;3.20;;
13712;SDS011;6928;50.546;7.120;2022-08-01T08:46:21;6.95;;;3.80;;
13712;SDS011;6928;50.546;7.120;2022-08-01T08:48:50;3.65;;;3.30;;
13712;SDS011;6928;50.546;7.120;2022-08-01T08:51:18;6.78;;;3.15;;
13712;SDS011;6928;50.546;7.120;2022-08-01T08:53:45;7.45;;;3.20;;
13712;SDS011;6928;50.546;7.120;2022-08-01T08:56:13;3.42;;;3.00;;
13712;SDS011;6928;50.546;7.120;2022-08-01T08:58:41;5.10;;;3.17;;
13712;SDS011;6928;50.546;7.120;2022-08-01T09:01:12;6.85;;;2.95;;
13712;SDS011;6928;50.546;7.120;2022-08-01T09:03:39;5.60;;;3.28;;
13712;SDS011;6928;50.546;7.120;2022-08-01T09:06:06;3.85;;;3.05;;
13712;SDS011;6928;50.546;7.120;2022-08-01T09:08:33;4.18;;;2.90;;
13712;SDS011;6928;50.546;7.120;2022-08-01T09:11:00;3.60;;;2.70;;
13712;SDS011;6928;50.546;7.120;2022-08-01T09:13:27;12.10;;;3.28;;
13712;SDS011;6928;50.546;7.120;2022-08-01T09:15:54;14.30;;;3.22;;
13712;SDS011;6928;50.546;7.120;2022-08-01T09:18:29;3.33;;;2.88;;
13712;SDS011;6928;50.546;7.120;2022-08-01T09:23:47;4.05;;;3.55;;
13712;SDS011;6928;50.546;7.120;2022-08-01T09:26:16;3.78;;;3.47;;
13712;SDS011;6928;50.546;7.120;2022-08-01T09:28:45;4.60;;;4.18;;
13712;SDS011;6928;50.546;7.120;2022-08-01T09:31:14;5.72;;;3.88;;
13712;SDS011;6928;50.546;7.120;2022-08-01T09:33:48;4.60;;;3.08;;
13712;SDS011;6928;50.546;7.120;2022-08-01T09:36:17;4.18;;;3.35;;
13712;SDS011;6928;50.546;7.120;2022-08-01T09:38:45;4.90;;;3.65;;
13712;SDS011;6928;50.546;7.120;2022-08-01T09:41:12;4.47;;;3.28;;
13712;SDS011;6928;50.546;7.120;2022-08-01T09:43:39;9.77;;;3.97;;
13712;SDS011;6928;50.546;7.120;2022-08-01T09:46:13;4.63;;;3.65;;
13712;SDS011;6928;50.546;7.120;2022-08-01T09:48:42;5.72;;;3.90;;
13712;SDS011;6928;50.546;7.120;2022-08-01T09:51:27;5.18;;;4.20;;
13712;SDS011;6928;50.546;7.120;2022-08-01T09:53:56;4.55;;;4.07;;
13712;SDS011;6928;50.546;7.120;2022-08-01T09:56:24;7.80;;;4.30;;
13712;SDS011;6928;50.546;7.120;2022-08-01T09:58:51;5.25;;;4.18;;
13712;SDS011;6928;50.546;7.120;2022-08-01T10:01:20;5.10;;;4.20;;
13712;SDS011;6928;50.546;7.120;2022-08-01T10:03:47;4.88;;;3.97;;
13712;SDS011;6928;50.546;7.120;2022-08-01T10:06:32;4.93;;;4.40;;
13712;SDS011;6928;50.546;7.120;2022-08-01T10:09:00;6.53;;;4.78;;
13712;SDS011;6928;50.546;7.120;2022-08-01T10:11:27;6.63;;;4.38;;
13712;SDS011;6928;50.546;7.120;2022-08-01T10:13:56;5.38;;;4.82;;
13712;SDS011;6928;50.546;7.120;2022-08-01T10:16:27;7.07;;;4.90;;
13712;SDS011;6928;50.546;7.120;2022-08-01T10:18:54;6.13;;;4.80;;
13712;SDS011;6928;50.546;7.120;2022-08-01T10:21:24;7.47;;;5.13;;
13712;SDS011;6928;50.546;7.120;2022-08-01T10:23:53;6.80;;;4.75;;
13712;SDS011;6928;50.546;7.120;2022-08-01T10:26:24;5.90;;;4.43;;
13712;SDS011;6928;50.546;7.120;2022-08-01T10:28:52;6.78;;;4.93;;
13712;SDS011;6928;50.546;7.120;2022-08-01T10:31:20;5.05;;;4.55;;
13712;SDS011;6928;50.546;7.120;2022-08-01T10:33:47;4.95;;;4.50;;
13712;SDS011;6928;50.546;7.120;2022-08-01T10:36:16;6.35;;;4.30;;
13712;SDS011;6928;50.546;7.120;2022-08-01T10:38:47;4.88;;;4.28;;
13712;SDS011;6928;50.546;7.120;2022-08-01T10:41:15;5.22;;;4.05;;
13712;SDS011;6928;50.546;7.120;2022-08-01T10:43:44;3.60;;;3.30;;
13712;SDS011;6928;50.546;7.120;2022-08-01T10:46:11;5.63;;;4.18;;
13712;SDS011;6928;50.546;7.120;2022-08-01T10:48:40;3.72;;;3.47;;
13712;SDS011;6928;50.546;7.120;2022-08-01T10:51:13;4.07;;;3.67;;
13712;SDS011;6928;50.546;7.120;2022-08-01T10:53:45;6.82;;;4.00;;
13712;SDS011;6928;50.546;7.120;2022-08-01T10:56:16;3.75;;;3.35;;
13712;SDS011;6928;50.546;7.120;2022-08-01T10:58:43;4.85;;;3.60;;
13712;SDS011;6928;50.546;7.120;2022-08-01T11:01:16;4.22;;;3.72;;
13712;SDS011;6928;50.546;7.120;2022-08-01T11:03:58;5.30;;;3.22;;
13712;SDS011;6928;50.546;7.120;2022-08-01T11:06:39;3.20;;;3.00;;
13712;SDS011;6928;50.546;7.120;2022-08-01T11:12:05;4.32;;;3.22;;
13712;SDS011;6928;50.546;7.120;2022-08-01T11:17:51;3.28;;;3.08;;
13712;SDS011;6928;50.546;7.120;2022-08-01T11:20:19;3.30;;;3.05;;
13712;SDS011;6928;50.546;7.120;2022-08-01T11:26:07;4.15;;;3.55;;
13712;SDS011;6928;50.546;7.120;2022-08-01T11:28:39;5.38;;;3.75;;
13712;SDS011;6928;50.546;7.120;2022-08-01T11:31:26;6.45;;;3.40;;
13712;SDS011;6928;50.546;7.120;2022-08-01T11:33:55;4.35;;;3.92;;
13712;SDS011;6928;50.546;7.120;2022-08-01T11:36:23;3.22;;;2.92;;
13712;SDS011;6928;50.546;7.120;2022-08-01T11:41:46;3.03;;;2.65;;
13712;SDS011;6928;50.546;7.120;2022-08-01T11:44:15;2.83;;;2.60;;
13712;SDS011;6928;50.546;7.120;2022-08-01T11:46:54;3.30;;;2.20;;
13712;SDS011;6928;50.546;7.120;2022-08-01T11:49:25;2.40;;;2.20;;
13712;SDS011;6928;50.546;7.120;2022-08-01T11:52:11;2.10;;;2.00;;
13712;SDS011;6928;50.546;7.120;2022-08-01T11:54:42;2.35;;;1.92;;
13712;SDS011;6928;50.546;7.120;2022-08-01T11:57:12;3.60;;;2.03;;
13712;SDS011;6928;50.546;7.120;2022-08-01T11:59:41;1.85;;;1.75;;
13712;SDS011;6928;50.546;7.120;2022-08-01T12:02:17;1.95;;;1.77;;
13712;SDS011;6928;50.546;7.120;2022-08-01T12:04:51;2.33;;;2.13;;
13712;SDS011;6928;50.546;7.120;2022-08-01T12:07:22;3.30;;;2.25;;
13712;SDS011;6928;50.546;7.120;2022-08-01T12:10:00;2.00;;;1.90;;
13712;SDS011;6928;50.546;7.120;2022-08-01T12:12:31;4.35;;;2.13;;
13712;SDS011;6928;50.546;7.120;2022-08-01T12:15:00;1.85;;;1.70;;
13712;SDS011;6928;50.546;7.120;2022-08-01T12:17:31;2.20;;;1.90;;
13712;SDS011;6928;50.546;7.120;2022-08-01T12:19:59;3.78;;;2.10;;
13712;SDS011;6928;50.546;7.120;2022-08-01T12:22:27;2.63;;;2.20;;
13712;SDS011;6928;50.546;7.120;2022-08-01T12:24:53;2.38;;;2.15;;
13712;SDS011;6928;50.546;7.120;2022-08-01T12:27:24;2.35;;;2.13;;
13712;SDS011;6928;50.546;7.120;2022-08-01T12:29:55;2.33;;;1.85;;
13712;SDS011;6928;50.546;7.120;2022-08-01T12:32:23;2.30;;;2.10;;
13712;SDS011;6928;50.546;7.120;2022-08-01T12:34:53;2.00;;;1.80;;
13712;SDS011;6928;50.546;7.120;2022-08-01T12:37:21;1.80;;;1.70;;
13712;SDS011;6928;50.546;7.120;2022-08-01T12:39:48;2.38;;;2.17;;
13712;SDS011;6928;50.546;7.120;2022-08-01T12:42:15;5.28;;;2.28;;
13712;SDS011;6928;50.546;7.120;2022-08-01T12:44:43;2.80;;;1.98;;
13712;SDS011;6928;50.546;7.120;2022-08-01T12:47:13;3.00;;;2.15;;
13712;SDS011;6928;50.546;7.120;2022-08-01T12:49:41;2.72;;;2.38;;
13712;SDS011;6928;50.546;7.120;2022-08-01T12:52:10;2.35;;;2.25;;
13712;SDS011;6928;50.546;7.120;2022-08-01T12:57:36;2.90;;;2.65;;
13712;SDS011;6928;50.546;7.120;2022-08-01T13:00:05;3.10;;;2.80;;
13712;SDS011;6928;50.546;7.120;2022-08-01T13:02:47;6.10;;;2.67;;
13712;SDS011;6928;50.546;7.120;2022-08-01T13:05:15;4.72;;;2.65;;
13712;SDS011;6928;50.546;7.120;2022-08-01T13:07:44;5.75;;;2.90;;
13712;SDS011;6928;50.546;7.120;2022-08-01T13:10:23;2.50;;;2.30;;
13712;SDS011;6928;50.546;7.120;2022-08-01T13:12:53;2.35;;;2.20;;
13712;SDS011;6928;50.546;7.120;2022-08-01T13:15:23;2.25;;;2.08;;
13712;SDS011;6928;50.546;7.120;2022-08-01T13:17:57;2.63;;;2.42;;
13712;SDS011;6928;50.546;7.120;2022-08-01T13:20:30;2.35;;;2.15;;
13712;SDS011;6928;50.546;7.120;2022-08-01T13:23:10;2.50;;;2.15;;
13712;SDS011;6928;50.546;7.120;2022-08-01T13:25:49;2.55;;;2.35;;
13712;SDS011;6928;50.546;7.120;2022-08-01T13:28:19;2.45;;;2.25;;
13712;SDS011;6928;50.546;7.120;2022-08-01T13:30:50;2.58;;;2.30;;
13712;SDS011;6928;50.546;7.120;2022-08-01T13:33:21;3.25;;;2.38;;
13712;SDS011;6928;50.546;7.120;2022-08-01T13:35:49;4.90;;;2.80;;
13712;SDS011;6928;50.546;7.120;2022-08-01T13:38:17;1.98;;;1.88;;
13712;SDS011;6928;50.546;7.120;2022-08-01T13:40:44;3.63;;;3.15;;
13712;SDS011;6928;50.546;7.120;2022-08-01T13:43:11;3.05;;;2.28;;
13712;SDS011;6928;50.546;7.120;2022-08-01T13:45:39;3.33;;;2.22;;
13712;SDS011;6928;50.546;7.120;2022-08-01T13:48:06;2.50;;;2.30;;
13712;SDS011;6928;50.546;7.120;2022-08-01T13:50:34;2.47;;;1.95;;
13712;SDS011;6928;50.546;7.120;2022-08-01T13:53:01;3.20;;;2.50;;
13712;SDS011;6928;50.546;7.120;2022-08-01T13:55:28;3.17;;;2.25;;
13712;SDS011;6928;50.546;7.120;2022-08-01T13:57:56;2.53;;;1.88;;
13712;SDS011;6928;50.546;7.120;2022-08-01T14:00:22;2.95;;;2.40;;
13712;SDS011;6928;50.546;7.120;2022-08-01T14:02:49;2.40;;;2.20;;
13712;SDS011;6928;50.546;7.120;2022-08-01T14:05:17;7.95;;;4.40;;
13712;SDS011;6928;50.546;7.120;2022-08-01T14:07:46;3.83;;;2.30;;
13712;SDS011;6928;50.546;7.120;2022-08-01T14:10:13;2.65;;;2.45;;
13712;SDS011;6928;50.546;7.120;2022-08-01T14:12:40;3.20;;;2.00;;
13712;SDS011;6928;50.546;7.120;2022-08-01T14:15:07;2.53;;;2.17;;
13712;SDS011;6928;50.546;7.120;2022-08-01T14:17:35;3.72;;;2.92;;
13712;SDS011;6928;50.546;7.120;2022-08-01T14:20:03;2.28;;;2.03;;
13712;SDS011;6928;50.546;7.120;2022-08-01T14:22:31;8.30;;;2.40;;
13712;SDS011;6928;50.546;7.120;2022-08-01T14:24:59;2.72;;;2.33;;
13712;SDS011;6928;50.546;7.120;2022-08-01T14:27:26;2.17;;;1.98;;
13712;SDS011;6928;50.546;7.120;2022-08-01T14:29:55;2.17;;;1.90;;
13712;SDS011;6928;50.546;7.120;2022-08-01T14:32:22;2.17;;;2.00;;
13712;SDS011;6928;50.546;7.120;2022-08-01T14:34:49;2.03;;;1.90;;
13712;SDS011;6928;50.546;7.120;2022-08-01T14:37:16;1.98;;;1.80;;
13712;SDS011;6928;50.546;7.120;2022-08-01T14:39:42;3.72;;;2.67;;
13712;SDS011;6928;50.546;7.120;2022-08-01T14:42:11;2.90;;;1.98;;
13712;SDS011;6928;50.546;7.120;2022-08-01T14:44:39;4.53;;;2.20;;
13712;SDS011;6928;50.546;7.120;2022-08-01T14:47:06;4.78;;;1.90;;
13712;SDS011;6928;50.546;7.120;2022-08-01T14:49:33;2.60;;;1.88;;
13712;SDS011;6928;50.546;7.120;2022-08-01T14:52:00;1.77;;;1.67;;
13712;SDS011;6928;50.546;7.120;2022-08-01T14:54:27;2.42;;;2.22;;
13712;SDS011;6928;50.546;7.120;2022-08-01T14:56:54;2.03;;;1.92;;
13712;SDS011;6928;50.546;7.120;2022-08-01T14:59:22;1.98;;;1.88;;
13712;SDS011;6928;50.546;7.120;2022-08-01T15:01:49;2.03;;;1.83;;
13712;SDS011;6928;50.546;7.120;2022-08-01T15:04:16;2.45;;;2.25;;
13712;SDS011;6928;50.546;7.120;2022-08-01T15:06:43;1.75;;;1.65;;
13712;SDS011;6928;50.546;7.120;2022-08-01T15:09:09;1.95;;;1.77;;
13712;SDS011;6928;50.546;7.120;2022-08-01T15:11:36;2.22;;;2.08;;
13712;SDS011;6928;50.546;7.120;2022-08-01T15:14:03;3.28;;;1.60;;
13712;SDS011;6928;50.546;7.120;2022-08-01T15:16:49;1.63;;;1.52;;
13712;SDS011;6928;50.546;7.120;2022-08-01T15:19:15;2.05;;;1.95;;
13712;SDS011;6928;50.546;7.120;2022-08-01T15:21:42;3.92;;;1.60;;
13712;SDS011;6928;50.546;7.120;2022-08-01T15:24:10;1.85;;;1.70;;
13712;SDS011;6928;50.546;7.120;2022-08-01T15:26:38;1.60;;;1.50;;
13712;SDS011;6928;50.546;7.120;2022-08-01T15:29:04;1.67;;;1.58;;
13712;SDS011;6928;50.546;7.120;2022-08-01T15:31:31;1.90;;;1.80;;